sensor_id;sensor_type;location;lat;lon;timestamp;temperature;humidity
298;DHT22;133;49.626;9.680;2023-04-25T00:01:04;9.70;88.80
298;DHT22;133;49.626;9.680;2023-04-25T00:03:31;9.70;88.90
298;DHT22;133;49.626;9.680;2023-04-25T00:05:58;9.70;88.70
298;DHT22;133;49.626;9.680;2023-04-25T00:08:27;9.70;88.60
298;DHT22;133;49.626;9.680;2023-04-25T00:10:53;9.60;88.50
298;DHT22;133;49.626;9.680;2023-04-25T00:13:19;9.70;88.50
298;DHT22;133;49.626;9.680;2023-04-25T00:15:45;9.60;88.70
298;DHT22;133;49.626;9.680;2023-04-25T00:18:11;9.50;88.70
298;DHT22;133;49.626;9.680;2023-04-25T00:20:37;9.60;88.30
298;DHT22;133;49.626;9.680;2023-04-25T00:23:03;9.50;88.20
298;DHT22;133;49.626;9.680;2023-04-25T00:25:28;9.50;88.20
298;DHT22;133;49.626;9.680;2023-04-25T00:27:55;9.50;88.00
298;DHT22;133;49.626;9.680;2023-04-25T00:30:20;9.50;87.90
298;DHT22;133;49.626;9.680;2023-04-25T00:32:46;9.30;88.70
298;DHT22;133;49.626;9.680;2023-04-25T00:35:11;9.20;89.40
298;DHT22;133;49.626;9.680;2023-04-25T00:37:37;9.20;89.80
298;DHT22;133;49.626;9.680;2023-04-25T00:40:05;9.20;90.00
298;DHT22;133;49.626;9.680;2023-04-25T00:42:31;9.20;90.30
298;DHT22;133;49.626;9.680;2023-04-25T00:44:58;9.20;90.40
298;DHT22;133;49.626;9.680;2023-04-25T00:47:25;9.30;90.70
298;DHT22;133;49.626;9.680;2023-04-25T00:49:51;9.30;91.00
298;DHT22;133;49.626;9.680;2023-04-25T00:52:19;9.30;91.10
298;DHT22;133;49.626;9.680;2023-04-25T00:54:45;9.20;91.40
298;DHT22;133;49.626;9.680;2023-04-25T00:57:10;9.20;91.50
298;DHT22;133;49.626;9.680;2023-04-25T00:59:37;9.30;91.50
298;DHT22;133;49.626;9.680;2023-04-25T01:02:04;9.30;91.40
298;DHT22;133;49.626;9.680;2023-04-25T01:04:30;9.30;91.20
298;DHT22;133;49.626;9.680;2023-04-25T01:06:56;9.30;91.20
298;DHT22;133;49.626;9.680;2023-04-25T01:09:22;9.20;91.40
298;DHT22;133;49.626;9.680;2023-04-25T01:11:49;9.20;91.50
298;DHT22;133;49.626;9.680;2023-04-25T01:14:15;9.20;91.80
298;DHT22;133;49.626;9.680;2023-04-25T01:16:40;9.20;92.20
298;DHT22;133;49.626;9.680;2023-04-25T01:19:10;9.10;92.90
298;DHT22;133;49.626;9.680;2023-04-25T01:21:39;9.00;93.70
298;DHT22;133;49.626;9.680;2023-04-25T01:24:05;9.00;94.30
298;DHT22;133;49.626;9.680;2023-04-25T01:26:31;9.00;94.80
298;DHT22;133;49.626;9.680;2023-04-25T01:28:58;9.10;94.70
298;DHT22;133;49.626;9.680;2023-04-25T01:31:24;9.10;94.80
298;DHT22;133;49.626;9.680;2023-04-25T01:33:51;9.10;94.90
298;DHT22;133;49.626;9.680;2023-04-25T01:36:17;9.10;94.60
298;DHT22;133;49.626;9.680;2023-04-25T01:38:43;9.10;95.10
298;DHT22;133;49.626;9.680;2023-04-25T01:41:09;9.10;95.00
298;DHT22;133;49.626;9.680;2023-04-25T01:43:35;9.10;95.30
298;DHT22;133;49.626;9.680;2023-04-25T01:46:01;9.10;95.90
298;DHT22;133;49.626;9.680;2023-04-25T01:48:27;9.10;95.80
298;DHT22;133;49.626;9.680;2023-04-25T01:50:52;9.00;95.70
298;DHT22;133;49.626;9.680;2023-04-25T01:53:18;9.10;96.00
298;DHT22;133;49.626;9.680;2023-04-25T01:55:43;9.10;95.90
298;DHT22;133;49.626;9.680;2023-04-25T01:58:09;9.10;95.70
298;DHT22;133;49.626;9.680;2023-04-25T02:00:37;9.00;95.30
298;DHT22;133;49.626;9.680;2023-04-25T02:03:04;9.00;95.40
298;DHT22;133;49.626;9.680;2023-04-25T02:05:37;9.10;95.30
298;DHT22;133;49.626;9.680;2023-04-25T02:08:09;8.90;95.00
298;DHT22;133;49.626;9.680;2023-04-25T02:10:35;8.80;94.10
298;DHT22;133;49.626;9.680;2023-04-25T02:13:01;8.70;94.10
298;DHT22;133;49.626;9.680;2023-04-25T02:15:27;8.60;93.40
298;DHT22;133;49.626;9.680;2023-04-25T02:17:53;8.60;94.00
298;DHT22;133;49.626;9.680;2023-04-25T02:20:21;8.50;93.80
298;DHT22;133;49.626;9.680;2023-04-25T02:22:47;8.50;93.50
298;DHT22;133;49.626;9.680;2023-04-25T02:25:12;8.50;93.70
298;DHT22;133;49.626;9.680;2023-04-25T02:27:38;8.50;93.90
298;DHT22;133;49.626;9.680;2023-04-25T02:30:05;8.60;93.80
298;DHT22;133;49.626;9.680;2023-04-25T02:32:32;8.60;93.30
298;DHT22;133;49.626;9.680;2023-04-25T02:34:59;8.50;93.70
298;DHT22;133;49.626;9.680;2023-04-25T02:37:29;8.60;93.80
298;DHT22;133;49.626;9.680;2023-04-25T02:39:55;8.60;93.80
298;DHT22;133;49.626;9.680;2023-04-25T02:42:20;8.60;93.30
298;DHT22;133;49.626;9.680;2023-04-25T02:44:46;8.40;93.80
298;DHT22;133;49.626;9.680;2023-04-25T02:47:12;8.50;94.00
298;DHT22;133;49.626;9.680;2023-04-25T02:49:38;8.50;93.80
298;DHT22;133;49.626;9.680;2023-04-25T02:52:03;8.60;93.40
298;DHT22;133;49.626;9.680;2023-04-25T02:54:30;8.50;93.40
298;DHT22;133;49.626;9.680;2023-04-25T02:56:55;8.60;93.70
298;DHT22;133;49.626;9.680;2023-04-25T02:59:21;8.60;93.30
298;DHT22;133;49.626;9.680;2023-04-25T03:01:46;8.70;93.50
298;DHT22;133;49.626;9.680;2023-04-25T03:04:12;8.60;93.50
298;DHT22;133;49.626;9.680;2023-04-25T03:06:38;8.60;94.00
298;DHT22;133;49.626;9.680;2023-04-25T03:09:03;8.70;93.70
298;DHT22;133;49.626;9.680;2023-04-25T03:11:29;8.80;93.50
298;DHT22;133;49.626;9.680;2023-04-25T03:13:55;8.90;93.80
298;DHT22;133;49.626;9.680;2023-04-25T03:16:21;8.90;93.60
298;DHT22;133;49.626;9.680;2023-04-25T03:18:47;9.00;93.60
298;DHT22;133;49.626;9.680;2023-04-25T03:21:12;9.00;93.80
298;DHT22;133;49.626;9.680;2023-04-25T03:23:38;9.10;93.00
298;DHT22;133;49.626;9.680;2023-04-25T03:26:04;9.00;92.80
298;DHT22;133;49.626;9.680;2023-04-25T03:28:29;9.10;93.00
298;DHT22;133;49.626;9.680;2023-04-25T03:30:55;9.10;93.00
298;DHT22;133;49.626;9.680;2023-04-25T03:33:20;9.00;93.00
298;DHT22;133;49.626;9.680;2023-04-25T03:35:46;9.10;93.00
298;DHT22;133;49.626;9.680;2023-04-25T03:38:12;9.10;92.60
298;DHT22;133;49.626;9.680;2023-04-25T03:40:37;9.00;92.60
298;DHT22;133;49.626;9.680;2023-04-25T03:43:03;9.00;92.50
298;DHT22;133;49.626;9.680;2023-04-25T03:45:28;9.00;92.50
298;DHT22;133;49.626;9.680;2023-04-25T03:47:54;9.00;92.70
298;DHT22;133;49.626;9.680;2023-04-25T03:50:20;8.90;92.70
298;DHT22;133;49.626;9.680;2023-04-25T03:52:45;8.80;93.00
298;DHT22;133;49.626;9.680;2023-04-25T03:55:11;8.70;93.90
298;DHT22;133;49.626;9.680;2023-04-25T03:57:37;8.60;94.60
298;DHT22;133;49.626;9.680;2023-04-25T04:00:03;8.50;94.90
298;DHT22;133;49.626;9.680;2023-04-25T04:02:29;8.40;95.30
298;DHT22;133;49.626;9.680;2023-04-25T04:04:55;8.50;95.50
298;DHT22;133;49.626;9.680;2023-04-25T04:07:22;8.50;95.30
298;DHT22;133;49.626;9.680;2023-04-25T04:09:47;8.50;95.70
298;DHT22;133;49.626;9.680;2023-04-25T04:12:13;8.50;96.10
298;DHT22;133;49.626;9.680;2023-04-25T04:14:38;8.50;96.20
298;DHT22;133;49.626;9.680;2023-04-25T04:17:04;8.60;96.30
298;DHT22;133;49.626;9.680;2023-04-25T04:19:31;8.60;96.30
298;DHT22;133;49.626;9.680;2023-04-25T04:21:56;8.70;96.20
298;DHT22;133;49.626;9.680;2023-04-25T04:24:22;8.60;95.70
298;DHT22;133;49.626;9.680;2023-04-25T04:26:48;8.60;96.10
298;DHT22;133;49.626;9.680;2023-04-25T04:29:13;8.60;96.00
298;DHT22;133;49.626;9.680;2023-04-25T04:31:49;8.60;96.10
298;DHT22;133;49.626;9.680;2023-04-25T04:34:18;8.50;95.70
298;DHT22;133;49.626;9.680;2023-04-25T04:36:45;8.40;96.20
298;DHT22;133;49.626;9.680;2023-04-25T04:39:12;8.40;96.40
298;DHT22;133;49.626;9.680;2023-04-25T04:41:38;8.40;96.60
298;DHT22;133;49.626;9.680;2023-04-25T04:44:04;8.30;96.60
298;DHT22;133;49.626;9.680;2023-04-25T04:46:29;8.20;96.80
298;DHT22;133;49.626;9.680;2023-04-25T04:48:56;8.20;97.00
298;DHT22;133;49.626;9.680;2023-04-25T04:51:22;8.30;97.50
298;DHT22;133;49.626;9.680;2023-04-25T04:53:48;8.30;97.70
298;DHT22;133;49.626;9.680;2023-04-25T04:56:13;8.40;97.80
298;DHT22;133;49.626;9.680;2023-04-25T04:58:39;8.50;97.40
298;DHT22;133;49.626;9.680;2023-04-25T05:01:05;8.60;97.60
298;DHT22;133;49.626;9.680;2023-04-25T05:03:31;8.60;97.40
298;DHT22;133;49.626;9.680;2023-04-25T05:05:56;8.60;96.90
298;DHT22;133;49.626;9.680;2023-04-25T05:08:22;8.70;96.60
298;DHT22;133;49.626;9.680;2023-04-25T05:10:48;8.70;96.80
298;DHT22;133;49.626;9.680;2023-04-25T05:13:13;8.70;96.80
298;DHT22;133;49.626;9.680;2023-04-25T05:15:39;8.80;96.80
298;DHT22;133;49.626;9.680;2023-04-25T05:18:04;8.80;96.40
298;DHT22;133;49.626;9.680;2023-04-25T05:20:30;8.80;96.40
298;DHT22;133;49.626;9.680;2023-04-25T05:22:56;8.80;96.40
298;DHT22;133;49.626;9.680;2023-04-25T05:25:21;8.90;96.30
298;DHT22;133;49.626;9.680;2023-04-25T05:27:47;8.90;96.10
298;DHT22;133;49.626;9.680;2023-04-25T05:30:12;8.70;95.00
298;DHT22;133;49.626;9.680;2023-04-25T05:32:38;8.70;95.70
298;DHT22;133;49.626;9.680;2023-04-25T05:35:04;8.60;95.10
298;DHT22;133;49.626;9.680;2023-04-25T05:37:32;8.70;95.80
298;DHT22;133;49.626;9.680;2023-04-25T05:39:58;8.70;95.50
298;DHT22;133;49.626;9.680;2023-04-25T05:42:23;8.90;95.40
298;DHT22;133;49.626;9.680;2023-04-25T05:44:49;8.90;95.40
298;DHT22;133;49.626;9.680;2023-04-25T05:47:14;9.00;95.20
298;DHT22;133;49.626;9.680;2023-04-25T05:49:40;8.80;94.80
298;DHT22;133;49.626;9.680;2023-04-25T05:52:06;8.80;95.40
298;DHT22;133;49.626;9.680;2023-04-25T05:54:31;8.90;95.20
298;DHT22;133;49.626;9.680;2023-04-25T05:56:57;9.10;95.40
298;DHT22;133;49.626;9.680;2023-04-25T05:59:23;9.10;95.50
298;DHT22;133;49.626;9.680;2023-04-25T06:01:48;9.30;95.50
298;DHT22;133;49.626;9.680;2023-04-25T06:04:14;9.20;94.80
298;DHT22;133;49.626;9.680;2023-04-25T06:06:39;9.20;94.80
298;DHT22;133;49.626;9.680;2023-04-25T06:09:05;9.30;94.50
298;DHT22;133;49.626;9.680;2023-04-25T06:11:31;9.40;94.50
298;DHT22;133;49.626;9.680;2023-04-25T06:13:56;9.40;95.10
298;DHT22;133;49.626;9.680;2023-04-25T06:16:22;9.40;94.50
298;DHT22;133;49.626;9.680;2023-04-25T06:18:47;9.60;93.80
298;DHT22;133;49.626;9.680;2023-04-25T06:21:13;9.60;93.20
298;DHT22;133;49.626;9.680;2023-04-25T06:23:39;9.50;93.80
298;DHT22;133;49.626;9.680;2023-04-25T06:26:04;9.70;94.00
298;DHT22;133;49.626;9.680;2023-04-25T06:28:30;9.80;93.20
298;DHT22;133;49.626;9.680;2023-04-25T06:30:57;9.80;92.90
298;DHT22;133;49.626;9.680;2023-04-25T06:33:22;9.80;92.40
298;DHT22;133;49.626;9.680;2023-04-25T06:35:49;9.80;92.10
298;DHT22;133;49.626;9.680;2023-04-25T06:38:15;9.80;90.70
298;DHT22;133;49.626;9.680;2023-04-25T06:40:41;9.80;90.40
298;DHT22;133;49.626;9.680;2023-04-25T06:43:06;9.80;91.00
298;DHT22;133;49.626;9.680;2023-04-25T06:45:32;9.90;91.70
298;DHT22;133;49.626;9.680;2023-04-25T06:47:57;9.80;91.90
298;DHT22;133;49.626;9.680;2023-04-25T06:50:23;9.90;91.30
298;DHT22;133;49.626;9.680;2023-04-25T06:52:49;9.90;90.80
298;DHT22;133;49.626;9.680;2023-04-25T06:55:14;9.90;90.60
298;DHT22;133;49.626;9.680;2023-04-25T06:57:40;9.80;91.60
298;DHT22;133;49.626;9.680;2023-04-25T07:00:06;9.80;91.00
298;DHT22;133;49.626;9.680;2023-04-25T07:02:34;9.90;90.70
298;DHT22;133;49.626;9.680;2023-04-25T07:05:00;9.70;90.50
298;DHT22;133;49.626;9.680;2023-04-25T07:07:26;9.70;91.00
298;DHT22;133;49.626;9.680;2023-04-25T07:09:52;9.70;91.40
298;DHT22;133;49.626;9.680;2023-04-25T07:12:17;9.50;93.10
298;DHT22;133;49.626;9.680;2023-04-25T07:14:43;9.50;92.00
298;DHT22;133;49.626;9.680;2023-04-25T07:17:09;9.50;91.30
298;DHT22;133;49.626;9.680;2023-04-25T07:19:35;9.50;90.90
298;DHT22;133;49.626;9.680;2023-04-25T07:22:00;9.50;90.40
298;DHT22;133;49.626;9.680;2023-04-25T07:24:26;9.30;91.00
298;DHT22;133;49.626;9.680;2023-04-25T07:26:51;9.40;91.30
298;DHT22;133;49.626;9.680;2023-04-25T07:29:17;9.50;90.70
298;DHT22;133;49.626;9.680;2023-04-25T07:31:43;9.70;89.90
298;DHT22;133;49.626;9.680;2023-04-25T07:34:08;9.90;89.60
298;DHT22;133;49.626;9.680;2023-04-25T07:36:34;9.90;88.70
298;DHT22;133;49.626;9.680;2023-04-25T07:39:00;9.80;88.50
298;DHT22;133;49.626;9.680;2023-04-25T07:41:25;9.80;88.30
298;DHT22;133;49.626;9.680;2023-04-25T07:43:51;9.90;89.30
298;DHT22;133;49.626;9.680;2023-04-25T07:46:16;10.10;88.60
298;DHT22;133;49.626;9.680;2023-04-25T07:48:42;10.20;87.80
298;DHT22;133;49.626;9.680;2023-04-25T07:51:08;10.30;87.50
298;DHT22;133;49.626;9.680;2023-04-25T07:53:33;10.30;87.70
298;DHT22;133;49.626;9.680;2023-04-25T07:56:00;10.30;86.30
298;DHT22;133;49.626;9.680;2023-04-25T07:58:25;10.30;85.60
298;DHT22;133;49.626;9.680;2023-04-25T08:00:51;10.30;86.50
298;DHT22;133;49.626;9.680;2023-04-25T08:03:17;10.40;86.50
298;DHT22;133;49.626;9.680;2023-04-25T08:05:42;10.60;85.60
298;DHT22;133;49.626;9.680;2023-04-25T08:08:08;10.70;84.40
298;DHT22;133;49.626;9.680;2023-04-25T08:10:34;10.80;83.00
298;DHT22;133;49.626;9.680;2023-04-25T08:13:00;10.90;82.10
298;DHT22;133;49.626;9.680;2023-04-25T08:15:25;10.80;81.90
298;DHT22;133;49.626;9.680;2023-04-25T08:17:51;10.90;81.60
298;DHT22;133;49.626;9.680;2023-04-25T08:20:17;10.90;81.80
298;DHT22;133;49.626;9.680;2023-04-25T08:22:43;11.20;81.40
298;DHT22;133;49.626;9.680;2023-04-25T08:25:08;11.20;79.90
298;DHT22;133;49.626;9.680;2023-04-25T08:27:34;11.20;78.60
298;DHT22;133;49.626;9.680;2023-04-25T08:30:00;11.20;76.20
298;DHT22;133;49.626;9.680;2023-04-25T08:32:27;11.40;77.50
298;DHT22;133;49.626;9.680;2023-04-25T08:34:52;11.70;76.40
298;DHT22;133;49.626;9.680;2023-04-25T08:37:20;11.60;75.70
298;DHT22;133;49.626;9.680;2023-04-25T08:39:46;11.80;76.00
298;DHT22;133;49.626;9.680;2023-04-25T08:42:14;12.00;75.10
298;DHT22;133;49.626;9.680;2023-04-25T08:44:45;11.90;75.40
298;DHT22;133;49.626;9.680;2023-04-25T08:47:10;11.50;75.80
298;DHT22;133;49.626;9.680;2023-04-25T08:49:36;11.70;74.70
298;DHT22;133;49.626;9.680;2023-04-25T08:52:04;11.80;75.80
298;DHT22;133;49.626;9.680;2023-04-25T08:54:32;11.80;74.80
298;DHT22;133;49.626;9.680;2023-04-25T08:57:02;11.70;73.40
298;DHT22;133;49.626;9.680;2023-04-25T08:59:30;11.70;71.40
298;DHT22;133;49.626;9.680;2023-04-25T09:01:57;11.80;71.50
298;DHT22;133;49.626;9.680;2023-04-25T09:04:22;12.00;71.00
298;DHT22;133;49.626;9.680;2023-04-25T09:06:48;12.20;70.00
298;DHT22;133;49.626;9.680;2023-04-25T09:09:14;12.30;71.50
298;DHT22;133;49.626;9.680;2023-04-25T09:11:39;12.50;69.30
298;DHT22;133;49.626;9.680;2023-04-25T09:14:13;12.60;70.00
298;DHT22;133;49.626;9.680;2023-04-25T09:16:58;12.40;67.90
298;DHT22;133;49.626;9.680;2023-04-25T09:19:32;12.40;68.90
298;DHT22;133;49.626;9.680;2023-04-25T09:22:00;12.10;68.70
298;DHT22;133;49.626;9.680;2023-04-25T09:24:36;11.80;69.90
298;DHT22;133;49.626;9.680;2023-04-25T09:27:09;11.80;71.20
298;DHT22;133;49.626;9.680;2023-04-25T09:29:40;12.10;70.70
298;DHT22;133;49.626;9.680;2023-04-25T09:32:20;12.40;71.40
298;DHT22;133;49.626;9.680;2023-04-25T09:34:54;12.80;69.60
298;DHT22;133;49.626;9.680;2023-04-25T09:37:28;12.80;69.30
298;DHT22;133;49.626;9.680;2023-04-25T09:39:56;13.10;69.40
298;DHT22;133;49.626;9.680;2023-04-25T09:42:23;13.50;67.60
298;DHT22;133;49.626;9.680;2023-04-25T09:44:51;13.70;67.00
298;DHT22;133;49.626;9.680;2023-04-25T09:47:17;13.20;66.50
298;DHT22;133;49.626;9.680;2023-04-25T09:49:44;13.10;67.40
298;DHT22;133;49.626;9.680;2023-04-25T09:52:17;13.40;67.90
298;DHT22;133;49.626;9.680;2023-04-25T09:54:45;13.60;67.00
298;DHT22;133;49.626;9.680;2023-04-25T09:57:29;13.80;67.80
298;DHT22;133;49.626;9.680;2023-04-25T09:59:55;13.60;66.70
298;DHT22;133;49.626;9.680;2023-04-25T10:02:25;13.70;66.70
298;DHT22;133;49.626;9.680;2023-04-25T10:04:53;13.10;66.70
298;DHT22;133;49.626;9.680;2023-04-25T10:07:25;12.70;68.30
298;DHT22;133;49.626;9.680;2023-04-25T10:09:59;12.40;69.50
298;DHT22;133;49.626;9.680;2023-04-25T10:12:26;12.50;69.90
298;DHT22;133;49.626;9.680;2023-04-25T10:14:52;12.50;69.20
298;DHT22;133;49.626;9.680;2023-04-25T10:17:20;12.70;68.10
298;DHT22;133;49.626;9.680;2023-04-25T10:19:49;12.80;66.00
298;DHT22;133;49.626;9.680;2023-04-25T10:22:18;12.90;66.70
298;DHT22;133;49.626;9.680;2023-04-25T10:24:46;12.90;67.30
298;DHT22;133;49.626;9.680;2023-04-25T10:27:12;13.00;66.60
298;DHT22;133;49.626;9.680;2023-04-25T10:29:38;13.10;67.00
298;DHT22;133;49.626;9.680;2023-04-25T10:32:04;13.30;67.80
298;DHT22;133;49.626;9.680;2023-04-25T10:34:43;13.70;65.70
298;DHT22;133;49.626;9.680;2023-04-25T10:37:12;14.50;63.60
298;DHT22;133;49.626;9.680;2023-04-25T10:39:39;15.60;64.00
298;DHT22;133;49.626;9.680;2023-04-25T10:42:05;15.80;61.80
298;DHT22;133;49.626;9.680;2023-04-25T10:44:33;16.50;60.30
298;DHT22;133;49.626;9.680;2023-04-25T10:47:01;16.40;58.30
298;DHT22;133;49.626;9.680;2023-04-25T10:49:38;16.00;59.40
298;DHT22;133;49.626;9.680;2023-04-25T10:52:25;16.50;59.40
298;DHT22;133;49.626;9.680;2023-04-25T10:54:56;16.60;56.70
298;DHT22;133;49.626;9.680;2023-04-25T10:57:41;16.40;58.70
298;DHT22;133;49.626;9.680;2023-04-25T11:02:47;15.90;59.50
298;DHT22;133;49.626;9.680;2023-04-25T11:05:44;15.20;60.50
298;DHT22;133;49.626;9.680;2023-04-25T11:08:12;14.80;62.30
298;DHT22;133;49.626;9.680;2023-04-25T11:10:40;14.70;63.10
298;DHT22;133;49.626;9.680;2023-04-25T11:13:05;14.70;62.60
298;DHT22;133;49.626;9.680;2023-04-25T11:15:31;14.60;61.90
298;DHT22;133;49.626;9.680;2023-04-25T11:17:57;14.40;61.50
298;DHT22;133;49.626;9.680;2023-04-25T11:20:25;14.10;62.30
298;DHT22;133;49.626;9.680;2023-04-25T11:22:51;13.90;63.00
298;DHT22;133;49.626;9.680;2023-04-25T11:25:17;13.80;63.40
298;DHT22;133;49.626;9.680;2023-04-25T11:27:56;14.00;64.10
298;DHT22;133;49.626;9.680;2023-04-25T11:30:23;14.10;64.40
298;DHT22;133;49.626;9.680;2023-04-25T11:32:49;14.20;63.50
298;DHT22;133;49.626;9.680;2023-04-25T11:35:15;14.20;63.50
298;DHT22;133;49.626;9.680;2023-04-25T11:37:42;14.10;63.20
298;DHT22;133;49.626;9.680;2023-04-25T11:40:09;13.80;64.00
298;DHT22;133;49.626;9.680;2023-04-25T11:42:46;13.70;63.20
298;DHT22;133;49.626;9.680;2023-04-25T11:45:12;13.40;64.20
298;DHT22;133;49.626;9.680;2023-04-25T11:47:38;13.30;64.80
298;DHT22;133;49.626;9.680;2023-04-25T11:50:06;13.60;64.70
298;DHT22;133;49.626;9.680;2023-04-25T11:52:50;13.90;63.60
298;DHT22;133;49.626;9.680;2023-04-25T11:55:19;14.20;62.80
298;DHT22;133;49.626;9.680;2023-04-25T11:57:48;14.30;61.60
298;DHT22;133;49.626;9.680;2023-04-25T12:00:16;14.30;61.60
298;DHT22;133;49.626;9.680;2023-04-25T12:02:43;14.20;62.30
298;DHT22;133;49.626;9.680;2023-04-25T12:05:10;14.00;62.70
298;DHT22;133;49.626;9.680;2023-04-25T12:07:36;13.90;62.80
298;DHT22;133;49.626;9.680;2023-04-25T12:10:11;14.10;62.40
298;DHT22;133;49.626;9.680;2023-04-25T12:12:38;13.90;63.30
298;DHT22;133;49.626;9.680;2023-04-25T12:15:24;14.30;63.90
298;DHT22;133;49.626;9.680;2023-04-25T12:17:51;14.80;63.90
298;DHT22;133;49.626;9.680;2023-04-25T12:20:25;15.50;61.20
298;DHT22;133;49.626;9.680;2023-04-25T12:22:51;15.70;60.60
298;DHT22;133;49.626;9.680;2023-04-25T12:25:40;15.70;60.40
298;DHT22;133;49.626;9.680;2023-04-25T12:28:17;15.40;60.10
298;DHT22;133;49.626;9.680;2023-04-25T12:30:53;15.20;60.60
298;DHT22;133;49.626;9.680;2023-04-25T12:33:20;14.90;61.20
298;DHT22;133;49.626;9.680;2023-04-25T12:35:47;14.80;62.60
298;DHT22;133;49.626;9.680;2023-04-25T12:38:24;14.60;62.60
298;DHT22;133;49.626;9.680;2023-04-25T12:40:50;14.70;63.10
298;DHT22;133;49.626;9.680;2023-04-25T12:43:15;14.90;62.70
298;DHT22;133;49.626;9.680;2023-04-25T12:45:41;14.80;61.10
298;DHT22;133;49.626;9.680;2023-04-25T12:48:07;14.50;61.40
298;DHT22;133;49.626;9.680;2023-04-25T12:50:32;14.80;61.60
298;DHT22;133;49.626;9.680;2023-04-25T12:52:58;14.90;62.20
298;DHT22;133;49.626;9.680;2023-04-25T12:55:23;15.00;61.40
298;DHT22;133;49.626;9.680;2023-04-25T12:57:49;14.90;61.00
298;DHT22;133;49.626;9.680;2023-04-25T13:00:15;14.50;60.20
298;DHT22;133;49.626;9.680;2023-04-25T13:02:43;14.00;60.70
298;DHT22;133;49.626;9.680;2023-04-25T13:05:08;13.50;61.80
298;DHT22;133;49.626;9.680;2023-04-25T13:07:34;13.20;63.20
298;DHT22;133;49.626;9.680;2023-04-25T13:10:00;13.30;64.40
298;DHT22;133;49.626;9.680;2023-04-25T13:12:27;13.40;63.30
298;DHT22;133;49.626;9.680;2023-04-25T13:14:53;13.40;63.70
298;DHT22;133;49.626;9.680;2023-04-25T13:17:18;13.60;63.80
298;DHT22;133;49.626;9.680;2023-04-25T13:19:44;13.80;63.60
298;DHT22;133;49.626;9.680;2023-04-25T13:22:10;14.30;63.20
298;DHT22;133;49.626;9.680;2023-04-25T13:24:36;14.70;62.00
298;DHT22;133;49.626;9.680;2023-04-25T13:27:02;15.20;61.50
298;DHT22;133;49.626;9.680;2023-04-25T13:29:28;15.90;59.90
298;DHT22;133;49.626;9.680;2023-04-25T13:31:54;15.90;59.20
298;DHT22;133;49.626;9.680;2023-04-25T13:34:20;15.70;58.70
298;DHT22;133;49.626;9.680;2023-04-25T13:36:46;15.00;59.70
298;DHT22;133;49.626;9.680;2023-04-25T13:39:11;14.70;61.10
298;DHT22;133;49.626;9.680;2023-04-25T13:41:37;14.50;63.00
298;DHT22;133;49.626;9.680;2023-04-25T13:44:03;14.40;62.60
298;DHT22;133;49.626;9.680;2023-04-25T13:46:29;14.00;62.70
298;DHT22;133;49.626;9.680;2023-04-25T13:48:54;13.70;63.90
298;DHT22;133;49.626;9.680;2023-04-25T13:51:20;13.50;64.20
298;DHT22;133;49.626;9.680;2023-04-25T13:53:45;13.20;64.90
298;DHT22;133;49.626;9.680;2023-04-25T13:56:11;13.20;65.80
298;DHT22;133;49.626;9.680;2023-04-25T13:58:37;13.00;66.20
298;DHT22;133;49.626;9.680;2023-04-25T14:01:03;13.00;66.40
298;DHT22;133;49.626;9.680;2023-04-25T14:03:29;13.00;66.10
298;DHT22;133;49.626;9.680;2023-04-25T14:05:55;13.00;65.50
298;DHT22;133;49.626;9.680;2023-04-25T14:08:21;12.80;66.00
298;DHT22;133;49.626;9.680;2023-04-25T14:10:47;12.90;66.30
298;DHT22;133;49.626;9.680;2023-04-25T14:13:12;13.00;66.70
298;DHT22;133;49.626;9.680;2023-04-25T14:15:38;13.20;65.10
298;DHT22;133;49.626;9.680;2023-04-25T14:18:04;13.40;64.20
298;DHT22;133;49.626;9.680;2023-04-25T14:20:30;13.60;64.40
298;DHT22;133;49.626;9.680;2023-04-25T14:22:55;13.90;63.00
298;DHT22;133;49.626;9.680;2023-04-25T14:25:23;14.40;63.30
298;DHT22;133;49.626;9.680;2023-04-25T14:27:50;14.90;60.80
298;DHT22;133;49.626;9.680;2023-04-25T14:30:17;15.10;60.30
298;DHT22;133;49.626;9.680;2023-04-25T14:32:43;15.00;59.90
298;DHT22;133;49.626;9.680;2023-04-25T14:35:09;14.40;59.30
298;DHT22;133;49.626;9.680;2023-04-25T14:37:35;14.20;61.40
298;DHT22;133;49.626;9.680;2023-04-25T14:40:01;14.10;61.70
298;DHT22;133;49.626;9.680;2023-04-25T14:42:26;14.00;61.80
298;DHT22;133;49.626;9.680;2023-04-25T14:44:52;14.00;61.30
298;DHT22;133;49.626;9.680;2023-04-25T14:47:17;13.80;61.10
298;DHT22;133;49.626;9.680;2023-04-25T14:49:44;13.70;61.20
298;DHT22;133;49.626;9.680;2023-04-25T14:52:12;13.60;62.10
298;DHT22;133;49.626;9.680;2023-04-25T14:54:37;13.50;63.10
298;DHT22;133;49.626;9.680;2023-04-25T14:57:03;13.20;63.60
298;DHT22;133;49.626;9.680;2023-04-25T14:59:28;13.00;63.10
298;DHT22;133;49.626;9.680;2023-04-25T15:01:54;13.00;64.10
298;DHT22;133;49.626;9.680;2023-04-25T15:04:20;12.90;64.70
298;DHT22;133;49.626;9.680;2023-04-25T15:06:46;12.90;63.60
298;DHT22;133;49.626;9.680;2023-04-25T15:09:12;12.80;64.10
298;DHT22;133;49.626;9.680;2023-04-25T15:11:37;12.80;64.00
298;DHT22;133;49.626;9.680;2023-04-25T15:14:03;12.70;64.20
298;DHT22;133;49.626;9.680;2023-04-25T15:16:29;12.70;64.50
298;DHT22;133;49.626;9.680;2023-04-25T15:18:56;12.70;64.30
298;DHT22;133;49.626;9.680;2023-04-25T15:21:21;12.70;64.40
298;DHT22;133;49.626;9.680;2023-04-25T15:23:47;12.60;64.20
298;DHT22;133;49.626;9.680;2023-04-25T15:26:13;12.60;64.60
298;DHT22;133;49.626;9.680;2023-04-25T15:28:38;12.50;64.00
298;DHT22;133;49.626;9.680;2023-04-25T15:31:04;12.40;65.00
298;DHT22;133;49.626;9.680;2023-04-25T15:33:30;12.50;64.10
298;DHT22;133;49.626;9.680;2023-04-25T15:35:55;12.40;65.20
298;DHT22;133;49.626;9.680;2023-04-25T15:38:23;12.40;65.00
298;DHT22;133;49.626;9.680;2023-04-25T15:40:48;12.40;64.70
298;DHT22;133;49.626;9.680;2023-04-25T15:43:14;12.40;64.70
298;DHT22;133;49.626;9.680;2023-04-25T15:45:41;12.30;64.90
298;DHT22;133;49.626;9.680;2023-04-25T15:48:07;12.20;64.70
298;DHT22;133;49.626;9.680;2023-04-25T15:50:33;12.30;64.40
298;DHT22;133;49.626;9.680;2023-04-25T15:53:00;12.30;64.40
298;DHT22;133;49.626;9.680;2023-04-25T15:55:26;12.30;64.50
298;DHT22;133;49.626;9.680;2023-04-25T15:57:52;12.30;64.30
298;DHT22;133;49.626;9.680;2023-04-25T16:00:18;12.30;63.10
298;DHT22;133;49.626;9.680;2023-04-25T16:02:45;12.20;63.60
298;DHT22;133;49.626;9.680;2023-04-25T16:05:13;12.30;63.60
298;DHT22;133;49.626;9.680;2023-04-25T16:07:40;12.40;63.80
298;DHT22;133;49.626;9.680;2023-04-25T16:10:07;12.40;63.30
298;DHT22;133;49.626;9.680;2023-04-25T16:12:33;12.40;63.80
298;DHT22;133;49.626;9.680;2023-04-25T16:14:59;12.30;63.30
298;DHT22;133;49.626;9.680;2023-04-25T16:17:25;12.20;63.40
298;DHT22;133;49.626;9.680;2023-04-25T16:19:52;11.90;62.60
298;DHT22;133;49.626;9.680;2023-04-25T16:22:18;11.80;62.50
298;DHT22;133;49.626;9.680;2023-04-25T16:24:44;11.60;62.70
298;DHT22;133;49.626;9.680;2023-04-25T16:27:10;11.70;62.60
298;DHT22;133;49.626;9.680;2023-04-25T16:29:35;11.70;62.90
298;DHT22;133;49.626;9.680;2023-04-25T16:32:01;11.70;63.20
298;DHT22;133;49.626;9.680;2023-04-25T16:34:27;11.80;64.60
298;DHT22;133;49.626;9.680;2023-04-25T16:36:53;11.70;65.00
298;DHT22;133;49.626;9.680;2023-04-25T16:39:19;11.70;64.50
298;DHT22;133;49.626;9.680;2023-04-25T16:41:46;11.80;64.80